Stolt Jade — ZCSQ4 — position and weather

sailwx.info

Track history (hours):
 
Tides and Currents Weather Stations Pressure Air Temp Water Temp Dewpoint Dewpoint Depression Visibility Wind Speed Wind Dir Waves Ship Positions

Stolt Jade

Last reported at 2014-Aug-29 04:24 UTC. Time now 2014-Aug-29 20:20 UTC.
Position N 29°44' W 095°17'.

Length 175 m; draft 7.8 m.

Type: Ship (hazmat cat B). MMSI: 319439000.

Date/timePositionNaut miles runAvg speedWind from/ knotsBaromVisibWave heightAir tempDewpointWater temp
2014-Aug-29 04:24N 29°44' W 095°17'3 3.9
2014-Aug-29 03:33N 29°43' W 095°13'6 5.6
2014-Aug-29 02:33N 29°44' W 095°07'7 6.7
2014-Aug-29 01:33N 29°42' W 094°60'1312.7
2014-Aug-29 00:33N 29°31' W 094°53'  
2014-Aug-26 06:27N 25°40' W 079°41'1111.9
2014-Aug-26 05:33N 25°50' W 079°39'1211.9
2014-Aug-26 04:33N 26°02' W 079°37'1212.1
2014-Aug-26 03:33N 26°14' W 079°36'1212.3
2014-Aug-26 02:33N 26°26' W 079°34'1212.4
2014-Aug-26 01:33N 26°38' W 079°33'1312.6
2014-Aug-26 00:33N 26°51' W 079°31'  
2014-Aug-22 08:20N 39°37' W 073°02'1114.2
2014-Aug-22 07:33N 39°47' W 073°08'1514.9
2014-Aug-22 06:33N 39°59' W 073°20'1514.7
2014-Aug-22 05:33N 40°10' W 073°32'1514.6
2014-Aug-22 04:33N 40°22' W 073°44'1211.9
2014-Aug-22 03:33N 40°30' W 073°56'1010.0
2014-Aug-22 02:31N 40°38' W 074°04'0 0.1
2014-Aug-22 01:31N 40°38' W 074°04'0 0.2
2014-Aug-22 00:31N 40°38' W 074°04'0 0.0
2014-Aug-21 23:28N 40°38' W 074°04'0 0.0
2014-Aug-21 22:31N 40°38' W 074°04'0 0.0
2014-Aug-21 21:31N 40°38' W 074°04'0 0.0
2014-Aug-21 20:31N 40°38' W 074°04'0 0.2
2014-Aug-21 19:33N 40°38' W 074°04'4 3.9
2014-Aug-21 18:34N 40°40' W 074°09'2 1.9
2014-Aug-21 17:31N 40°42' W 074°08'0 0.0
2014-Aug-21 16:31N 40°42' W 074°08'0 0.0
2014-Aug-21 15:31N 40°42' W 074°08'0 0.0
2014-Aug-21 14:28N 40°42' W 074°08'0 0.0
2014-Aug-21 13:25N 40°42' W 074°08'0 0.0
2014-Aug-21 12:31N 40°42' W 074°08'0 0.0
2014-Aug-21 11:31N 40°42' W 074°08'0 0.0
2014-Aug-21 09:07N 40°42' W 074°08'0 0.0
2014-Aug-21 08:31N 40°42' W 074°08'0 0.0
2014-Aug-21 03:04N 40°42' W 074°08'0 0.0
2014-Aug-21 02:31N 40°42' W 074°08'0 0.0
2014-Aug-21 01:13N 40°42' W 074°08'0 0.0
2014-Aug-20 23:31N 40°42' W 074°08'0 0.0
2014-Aug-20 19:25N 40°42' W 074°08'0 0.0
2014-Aug-20 18:25N 40°42' W 074°08'0 0.0
2014-Aug-20 17:28N 40°42' W 074°08'0 0.0
2014-Aug-20 16:31N 40°42' W 074°08'0 0.0
2014-Aug-20 15:31N 40°42' W 074°08'0 0.0
2014-Aug-20 14:31N 40°42' W 074°08'0 0.0
2014-Aug-20 13:31N 40°42' W 074°08'0 0.0
2014-Aug-20 12:31N 40°42' W 074°08'0 0.0
2014-Aug-20 11:31N 40°42' W 074°08'0 0.0
2014-Aug-20 10:31N 40°42' W 074°08'0 0.0
2014-Aug-20 09:31N 40°42' W 074°08'0 0.0
2014-Aug-20 08:31N 40°42' W 074°08'0 0.0
2014-Aug-20 07:31N 40°42' W 074°08'0 0.0
2014-Aug-20 06:31N 40°42' W 074°08'1 0.8
2014-Aug-20 05:33N 40°41' W 074°08'3 2.6
2014-Aug-20 04:33N 40°39' W 074°06'0 0.0
2014-Aug-20 03:31N 40°39' W 074°06'0 0.0
2014-Aug-20 02:31N 40°39' W 074°06'0 0.0
2014-Aug-20 01:31N 40°39' W 074°06'0 0.0
2014-Aug-20 00:28N 40°39' W 074°06'0 0.0
2014-Aug-19 23:31N 40°39' W 074°06'0 0.0
2014-Aug-19 22:28N 40°39' W 074°06'0 0.0
2014-Aug-19 21:31N 40°39' W 074°06'0 0.0
2014-Aug-19 20:31N 40°39' W 074°06'0 0.0
2014-Aug-19 19:22N 40°39' W 074°06'0 0.0
2014-Aug-19 18:31N 40°39' W 074°06'0 0.0
2014-Aug-19 17:31N 40°39' W 074°06'0 0.0
2014-Aug-19 16:28N 40°39' W 074°06'0 0.0
2014-Aug-19 15:25N 40°39' W 074°06'0 0.0
2014-Aug-19 14:16N 40°39' W 074°06'0 0.0
2014-Aug-19 13:25N 40°39' W 074°06'0 0.0
2014-Aug-19 12:28N 40°39' W 074°06'0 0.0
2014-Aug-19 11:31N 40°39' W 074°06'0 0.0
2014-Aug-19 10:28N 40°39' W 074°06'0 0.0
2014-Aug-19 09:31N 40°39' W 074°06'0 0.0
2014-Aug-19 08:28N 40°39' W 074°06'0 0.0
2014-Aug-19 07:31N 40°39' W 074°06'0 0.0
2014-Aug-19 06:31N 40°39' W 074°06'0 0.0
2014-Aug-19 05:28N 40°39' W 074°06'0 0.0
2014-Aug-19 04:31N 40°39' W 074°06'  
Track history (hours):
 
Tides and Currents Weather Stations Pressure Air Temp Water Temp Dewpoint Dewpoint Depression Visibility Wind Speed Wind Dir Waves Ship Positions

Stolt Jade

Last reported at 2014-Aug-29 04:24 UTC. Time now 2014-Aug-29 20:20 UTC.
Position N 29°44' W 095°17'.

Length 175 m; draft 7.8 m.

Type: Ship (hazmat cat B). MMSI: 319439000.

Date/timePositionNaut miles runAvg speedWind from/ knotsBaromVisibWave heightAir tempDewpointWater temp
2014-Aug-29 04:24N 29°44' W 095°17'3 3.9
2014-Aug-29 03:33N 29°43' W 095°13'6 5.6
2014-Aug-29 02:33N 29°44' W 095°07'7 6.7
2014-Aug-29 01:33N 29°42' W 094°60'1312.7
2014-Aug-29 00:33N 29°31' W 094°53'  
2014-Aug-26 06:27N 25°40' W 079°41'1111.9
2014-Aug-26 05:33N 25°50' W 079°39'1211.9
2014-Aug-26 04:33N 26°02' W 079°37'1212.1
2014-Aug-26 03:33N 26°14' W 079°36'1212.3
2014-Aug-26 02:33N 26°26' W 079°34'1212.4
2014-Aug-26 01:33N 26°38' W 079°33'1312.6
2014-Aug-26 00:33N 26°51' W 079°31'  
2014-Aug-22 08:20N 39°37' W 073°02'1114.2
2014-Aug-22 07:33N 39°47' W 073°08'1514.9
2014-Aug-22 06:33N 39°59' W 073°20'1514.7
2014-Aug-22 05:33N 40°10' W 073°32'1514.6
2014-Aug-22 04:33N 40°22' W 073°44'1211.9
2014-Aug-22 03:33N 40°30' W 073°56'1010.0
2014-Aug-22 02:31N 40°38' W 074°04'0 0.1
2014-Aug-22 01:31N 40°38' W 074°04'0 0.2
2014-Aug-22 00:31N 40°38' W 074°04'0 0.0
2014-Aug-21 23:28N 40°38' W 074°04'0 0.0
2014-Aug-21 22:31N 40°38' W 074°04'0 0.0
2014-Aug-21 21:31N 40°38' W 074°04'0 0.0
2014-Aug-21 20:31N 40°38' W 074°04'0 0.2
2014-Aug-21 19:33N 40°38' W 074°04'4 3.9
2014-Aug-21 18:34N 40°40' W 074°09'2 1.9
2014-Aug-21 17:31N 40°42' W 074°08'0 0.0
2014-Aug-21 16:31N 40°42' W 074°08'0 0.0
2014-Aug-21 15:31N 40°42' W 074°08'0 0.0
2014-Aug-21 14:28N 40°42' W 074°08'0 0.0
2014-Aug-21 13:25N 40°42' W 074°08'0 0.0
2014-Aug-21 12:31N 40°42' W 074°08'0 0.0
2014-Aug-21 11:31N 40°42' W 074°08'0 0.0
2014-Aug-21 09:07N 40°42' W 074°08'0 0.0
2014-Aug-21 08:31N 40°42' W 074°08'0 0.0
2014-Aug-21 03:04N 40°42' W 074°08'0 0.0
2014-Aug-21 02:31N 40°42' W 074°08'0 0.0
2014-Aug-21 01:13N 40°42' W 074°08'0 0.0
2014-Aug-20 23:31N 40°42' W 074°08'0 0.0
2014-Aug-20 19:25N 40°42' W 074°08'0 0.0
2014-Aug-20 18:25N 40°42' W 074°08'0 0.0
2014-Aug-20 17:28N 40°42' W 074°08'0 0.0
2014-Aug-20 16:31N 40°42' W 074°08'0 0.0
2014-Aug-20 15:31N 40°42' W 074°08'0 0.0
2014-Aug-20 14:31N 40°42' W 074°08'0 0.0
2014-Aug-20 13:31N 40°42' W 074°08'0 0.0
2014-Aug-20 12:31N 40°42' W 074°08'0 0.0
2014-Aug-20 11:31N 40°42' W 074°08'0 0.0
2014-Aug-20 10:31N 40°42' W 074°08'0 0.0
2014-Aug-20 09:31N 40°42' W 074°08'0 0.0
2014-Aug-20 08:31N 40°42' W 074°08'0 0.0
2014-Aug-20 07:31N 40°42' W 074°08'0 0.0
2014-Aug-20 06:31N 40°42' W 074°08'1 0.8
2014-Aug-20 05:33N 40°41' W 074°08'3 2.6
2014-Aug-20 04:33N 40°39' W 074°06'0 0.0
2014-Aug-20 03:31N 40°39' W 074°06'0 0.0
2014-Aug-20 02:31N 40°39' W 074°06'0 0.0
2014-Aug-20 01:31N 40°39' W 074°06'0 0.0
2014-Aug-20 00:28N 40°39' W 074°06'0 0.0
2014-Aug-19 23:31N 40°39' W 074°06'0 0.0
2014-Aug-19 22:28N 40°39' W 074°06'0 0.0
2014-Aug-19 21:31N 40°39' W 074°06'0 0.0
2014-Aug-19 20:31N 40°39' W 074°06'0 0.0
2014-Aug-19 19:22N 40°39' W 074°06'0 0.0
2014-Aug-19 18:31N 40°39' W 074°06'0 0.0
2014-Aug-19 17:31N 40°39' W 074°06'0 0.0
2014-Aug-19 16:28N 40°39' W 074°06'0 0.0
2014-Aug-19 15:25N 40°39' W 074°06'0 0.0
2014-Aug-19 14:16N 40°39' W 074°06'0 0.0
2014-Aug-19 13:25N 40°39' W 074°06'0 0.0
2014-Aug-19 12:28N 40°39' W 074°06'0 0.0
2014-Aug-19 11:31N 40°39' W 074°06'0 0.0
2014-Aug-19 10:28N 40°39' W 074°06'0 0.0
2014-Aug-19 09:31N 40°39' W 074°06'0 0.0
2014-Aug-19 08:28N 40°39' W 074°06'0 0.0
2014-Aug-19 07:31N 40°39' W 074°06'0 0.0
2014-Aug-19 06:31N 40°39' W 074°06'0 0.0
2014-Aug-19 05:28N 40°39' W 074°06'0 0.0
2014-Aug-19 04:31N 40°39' W 074°06'  

Dump ship's entire track history